Terminal Aerodrome Forecast
Issued by NWS

Home | Current Version | Previous Version | Text Only | Print | Product List | Glossary On
Versions: 1 2 3 4 5 6 7 8 9 10 11 12 13
000
FTUS46 KSTO 311100
TAFRDD
TAF
KRDD 311121Z 3112/0112 18008KT P6SM -RA OVC050
      TEMPO 3115/3118 4SM RA OVC015
     FM312200 18008KT P6SM -SHRA SCT020 BKN030
     FM010200 17005KT P6SM -SHRA OVC050
     FM010600 VRB04KT P6SM VCSH BKN050=

USA.gov is the U.S. government's official web portal to all federal, state and local government web resources and services.